createdAt,value
2018-01-24T00:00:23.174Z,0
2018-01-24T00:01:23.162Z,0
2018-01-24T00:02:23.375Z,0
2018-01-24T00:03:23.356Z,0
2018-01-24T00:04:23.083Z,0
2018-01-24T00:05:23.309Z,0
2018-01-24T00:06:23.281Z,0
2018-01-24T00:07:23.251Z,0
2018-01-24T00:08:23.229Z,0
2018-01-24T00:09:23.206Z,0
2018-01-24T00:10:23.180Z,0
2018-01-24T00:11:23.158Z,0
2018-01-24T00:12:23.131Z,0
2018-01-24T00:13:23.104Z,0
2018-01-24T00:14:23.078Z,0
2018-01-24T00:15:22.812Z,0
2018-01-24T00:16:23.044Z,0
2018-01-24T00:17:22.764Z,0
2018-01-24T00:18:22.982Z,0
2018-01-24T00:19:22.970Z,0
2018-01-24T00:20:22.688Z,0
2018-01-24T00:21:22.919Z,0
2018-01-24T00:22:22.885Z,0
2018-01-24T00:23:22.868Z,0
2018-01-24T00:24:22.594Z,0
2018-01-24T00:25:22.815Z,0
2018-01-24T00:26:22.786Z,0
2018-01-24T00:27:22.762Z,0
2018-01-24T00:28:22.495Z,0
2018-01-24T00:29:22.469Z,0
2018-01-24T00:30:22.701Z,0
2018-01-24T00:31:22.432Z,0
2018-01-24T00:32:22.646Z,0
2018-01-24T00:33:22.624Z,0
2018-01-24T00:34:22.602Z,0
2018-01-24T00:35:22.567Z,0
2018-01-24T00:36:22.300Z,0
2018-01-24T00:37:22.277Z,0
2018-01-24T00:38:22.251Z,0
2018-01-24T00:39:22.474Z,0
2018-01-24T00:40:22.447Z,0
2018-01-24T00:41:22.184Z,0
2018-01-24T00:42:22.402Z,0
2018-01-24T00:43:22.380Z,0
2018-01-24T00:44:22.109Z,0
2018-01-24T00:45:22.330Z,0
2018-01-24T00:46:22.159Z,0
2018-01-24T00:47:22.286Z,0
2018-01-24T00:48:22.251Z,0
2018-01-24T00:49:22.226Z,0
2018-01-24T00:50:21.959Z,0
2018-01-24T00:51:22.185Z,0
2018-01-24T00:52:22.159Z,0
2018-01-24T00:53:22.136Z,0
2018-01-24T00:54:22.108Z,0
2018-01-24T00:55:21.839Z,0
2018-01-24T00:56:22.057Z,0
2018-01-24T00:57:22.036Z,0
2018-01-24T00:58:22.012Z,0
2018-01-24T00:59:21.493Z,0
2018-01-24T01:00:21.962Z,0
2018-01-24T01:01:21.690Z,0
2018-01-24T01:02:21.913Z,0
2018-01-24T01:03:21.889Z,0
2018-01-24T01:04:21.877Z,0
2018-01-24T01:05:21.847Z,0
2018-01-24T01:06:21.822Z,0
2018-01-24T01:07:21.797Z,0
2018-01-24T01:08:21.524Z,0
2018-01-24T01:09:21.749Z,0
2018-01-24T01:10:21.735Z,0
2018-01-24T01:11:21.796Z,0
2018-01-24T01:12:21.673Z,0
2018-01-24T01:13:21.401Z,0
2018-01-24T01:14:21.375Z,0
2018-01-24T01:15:21.354Z,0
2018-01-24T01:16:21.580Z,0
2018-01-24T01:17:21.563Z,0
2018-01-24T01:18:21.284Z,0
2018-01-24T01:19:21.507Z,0
2018-01-24T01:20:20.746Z,0
2018-01-24T01:21:20.982Z,0
2018-01-24T01:22:21.439Z,0
2018-01-24T01:23:21.167Z,0
2018-01-24T01:24:21.386Z,0
2018-01-24T01:25:21.118Z,0
2018-01-24T01:26:21.344Z,0
2018-01-24T01:27:21.332Z,0
2018-01-24T01:28:21.334Z,0
2018-01-24T01:29:21.024Z,0
2018-01-24T01:30:21.246Z,0
2018-01-24T01:31:21.222Z,0
2018-01-24T01:32:21.206Z,0
2018-01-24T01:33:20.935Z,0
2018-01-24T01:34:21.168Z,0
2018-01-24T01:35:20.876Z,0
2018-01-24T01:36:20.863Z,0
2018-01-24T01:37:20.836Z,0
2018-01-24T01:38:21.053Z,0
2018-01-24T01:39:20.782Z,0
2018-01-24T01:40:20.760Z,0
2018-01-24T01:41:20.985Z,0
2018-01-24T01:42:20.956Z,0
2018-01-24T01:43:20.936Z,0
2018-01-24T01:44:20.917Z,0
2018-01-24T01:45:20.641Z,0
2018-01-24T01:46:20.862Z,0
2018-01-24T01:47:20.598Z,0
2018-01-24T01:48:20.824Z,0
2018-01-24T01:49:20.554Z,0
2018-01-24T01:50:20.771Z,0
2018-01-24T01:51:20.749Z,0
2018-01-24T01:52:20.820Z,0
2018-01-24T01:53:20.700Z,0
2018-01-24T01:54:20.687Z,0
2018-01-24T01:55:20.411Z,0
2018-01-24T01:56:20.386Z,0
2018-01-24T01:57:20.607Z,0
2018-01-24T01:58:20.337Z,0
2018-01-24T01:59:20.320Z,0
2018-01-24T02:00:20.538Z,0
2018-01-24T02:01:20.272Z,0
2018-01-24T02:02:20.344Z,0
2018-01-24T02:03:20.222Z,0
2018-01-24T02:04:20.444Z,0
2018-01-24T02:05:20.420Z,0
2018-01-24T02:06:19.910Z,0
2018-01-24T02:07:20.124Z,0
2018-01-24T02:08:20.358Z,0
2018-01-24T02:09:20.080Z,0
2018-01-24T02:10:20.298Z,0
2018-01-24T02:11:20.278Z,0
2018-01-24T02:12:20.295Z,0
2018-01-24T02:13:20.233Z,0
2018-01-24T02:14:20.209Z,0
2018-01-24T02:15:20.180Z,0
2018-01-24T02:16:20.164Z,0
2018-01-24T02:17:20.233Z,0
2018-01-24T02:18:19.867Z,0
2018-01-24T02:19:19.841Z,0
2018-01-24T02:20:20.075Z,0
2018-01-24T02:21:20.043Z,0
2018-01-24T02:22:20.031Z,0
2018-01-24T02:23:19.997Z,0
2018-01-24T02:24:19.976Z,0
2018-01-24T02:25:19.951Z,0
2018-01-24T02:26:19.930Z,0
2018-01-24T02:27:19.904Z,0
2018-01-24T02:28:19.642Z,0
2018-01-24T02:29:19.619Z,0
2018-01-24T02:30:19.589Z,0
2018-01-24T02:31:19.814Z,0
2018-01-24T02:32:19.893Z,0
2018-01-24T02:33:19.523Z,0
2018-01-24T02:34:19.748Z,0
2018-01-24T02:35:19.488Z,0
2018-01-24T02:36:19.705Z,0
2018-01-24T02:37:19.772Z,0
2018-01-24T02:38:19.406Z,0
2018-01-24T02:39:19.631Z,0
2018-01-24T02:40:19.112Z,0
2018-01-24T02:41:19.086Z,0
2018-01-24T02:42:19.560Z,0
2018-01-24T02:43:19.535Z,0
2018-01-24T02:44:19.545Z,0
2018-01-24T02:45:19.240Z,0
2018-01-24T02:46:19.471Z,0
2018-01-24T02:47:19.442Z,0
2018-01-24T02:48:19.168Z,0
2018-01-24T02:49:19.399Z,0
2018-01-24T02:50:19.375Z,0
2018-01-24T02:51:19.343Z,0
2018-01-24T02:52:19.320Z,0
2018-01-24T02:53:19.057Z,0
2018-01-24T02:54:19.269Z,0
2018-01-24T02:55:19.004Z,0
2018-01-24T02:56:19.238Z,0
2018-01-24T02:57:19.205Z,0
2018-01-24T02:58:19.182Z,0
2018-01-24T02:59:18.909Z,0
2018-01-24T03:00:19.249Z,0
2018-01-24T03:01:19.122Z,0
2018-01-24T03:02:19.093Z,0
2018-01-24T03:03:18.812Z,0
2018-01-24T03:04:18.556Z,0
2018-01-24T03:05:18.779Z,0
2018-01-24T03:06:18.996Z,0
2018-01-24T03:07:18.728Z,0
2018-01-24T03:08:18.954Z,0
2018-01-24T03:09:18.682Z,0
2018-01-24T03:10:18.906Z,0
2018-01-24T03:11:18.681Z,0
2018-01-24T03:12:18.851Z,0
2018-01-24T03:13:18.335Z,0
2018-01-24T03:14:18.312Z,0
2018-01-24T03:15:18.531Z,0
2018-01-24T03:16:18.509Z,0
2018-01-24T03:17:18.488Z,0
2018-01-24T03:18:18.704Z,0
2018-01-24T03:19:18.690Z,0
2018-01-24T03:20:18.419Z,0
2018-01-24T03:21:18.643Z,0
2018-01-24T03:22:18.368Z,0
2018-01-24T03:23:18.696Z,0
2018-01-24T03:24:18.617Z,0
2018-01-24T03:25:18.056Z,0
2018-01-24T03:26:18.523Z,0
2018-01-24T03:27:18.247Z,0
2018-01-24T03:28:18.475Z,0
2018-01-24T03:29:18.452Z,0
2018-01-24T03:30:18.189Z,0
2018-01-24T03:31:18.408Z,0
2018-01-24T03:32:18.135Z,0
2018-01-24T03:33:17.862Z,0
2018-01-24T03:34:17.842Z,0
2018-01-24T03:35:18.067Z,0
2018-01-24T03:36:18.042Z,0
2018-01-24T03:37:18.010Z,0
2018-01-24T03:38:18.237Z,0
2018-01-24T03:39:18.218Z,0
2018-01-24T03:40:18.195Z,0
2018-01-24T03:41:18.166Z,0
2018-01-24T03:42:18.141Z,0
2018-01-24T03:43:18.124Z,0
2018-01-24T03:44:17.854Z,0
2018-01-24T03:45:17.826Z,0
2018-01-24T03:46:17.847Z,0
2018-01-24T03:47:18.079Z,0
2018-01-24T03:48:17.864Z,0
2018-01-24T03:49:17.730Z,0
2018-01-24T03:50:17.958Z,0
2018-01-24T03:51:17.925Z,0
2018-01-24T03:52:17.736Z,0
2018-01-24T03:53:17.890Z,0
2018-01-24T03:54:17.120Z,0
2018-01-24T03:55:17.876Z,0
2018-01-24T03:56:17.565Z,0
2018-01-24T03:57:17.298Z,0
2018-01-24T03:58:17.519Z,0
2018-01-24T03:59:17.752Z,0
2018-01-24T04:00:17.728Z,0
2018-01-24T04:01:17.201Z,0
2018-01-24T04:02:17.431Z,0
2018-01-24T04:03:17.645Z,0
2018-01-24T04:04:17.626Z,0
2018-01-24T04:05:17.595Z,0
2018-01-24T04:06:17.632Z,0
2018-01-24T04:07:17.064Z,0
2018-01-24T04:08:17.526Z,0
2018-01-24T04:09:17.511Z,0
2018-01-24T04:10:17.239Z,0
2018-01-24T04:11:17.457Z,0
2018-01-24T04:12:17.435Z,0
2018-01-24T04:13:17.419Z,0
2018-01-24T04:14:17.142Z,0
2018-01-24T04:15:17.118Z,0
2018-01-24T04:16:17.344Z,0
2018-01-24T04:17:17.068Z,0
2018-01-24T04:18:17.057Z,0
2018-01-24T04:19:17.025Z,0
2018-01-24T04:20:17.245Z,0
2018-01-24T04:21:16.978Z,0
2018-01-24T04:22:16.960Z,0
2018-01-24T04:23:17.176Z,0
2018-01-24T04:24:16.913Z,0
2018-01-24T04:25:17.134Z,0
2018-01-24T04:26:16.864Z,0
2018-01-24T04:27:17.087Z,0
2018-01-24T04:28:17.065Z,0
2018-01-24T04:29:17.041Z,0
2018-01-24T04:30:17.024Z,0
2018-01-24T04:31:16.995Z,0
2018-01-24T04:32:16.733Z,0
2018-01-24T04:33:16.944Z,0
2018-01-24T04:34:16.928Z,0
2018-01-24T04:35:16.403Z,0
2018-01-24T04:36:16.874Z,0
2018-01-24T04:37:16.853Z,0
2018-01-24T04:38:16.834Z,0
2018-01-24T04:39:16.800Z,0
2018-01-24T04:40:16.534Z,0
2018-01-24T04:41:16.782Z,0
2018-01-24T04:42:16.737Z,0
2018-01-24T04:43:16.473Z,0
2018-01-24T04:44:16.690Z,0
2018-01-24T04:45:16.667Z,0
2018-01-24T04:46:16.639Z,0
2018-01-24T04:47:16.623Z,0
2018-01-24T04:48:16.356Z,0
2018-01-24T04:49:16.573Z,0
2018-01-24T04:50:16.549Z,0
2018-01-24T04:51:16.525Z,0
2018-01-24T04:52:16.255Z,0
2018-01-24T04:53:16.234Z,0
2018-01-24T04:54:16.207Z,0
2018-01-24T04:55:16.186Z,0
2018-01-24T04:56:15.911Z,0
2018-01-24T04:57:16.381Z,0
2018-01-24T04:58:16.121Z,0
2018-01-24T04:59:16.500Z,0
2018-01-24T05:00:16.074Z,0
2018-01-24T05:01:16.298Z,0
2018-01-24T05:02:16.265Z,0
2018-01-24T05:03:15.998Z,0
2018-01-24T05:04:15.979Z,0
2018-01-24T05:05:15.954Z,0
2018-01-24T05:06:16.177Z,0
2018-01-24T05:07:15.910Z,0
2018-01-24T05:08:15.884Z,0
2018-01-24T05:09:15.862Z,0
2018-01-24T05:10:16.086Z,0
2018-01-24T05:11:16.062Z,0
2018-01-24T05:12:16.035Z,0
2018-01-24T05:13:16.019Z,0
2018-01-24T05:14:15.741Z,0
2018-01-24T05:15:15.974Z,0
2018-01-24T05:16:15.950Z,0
2018-01-24T05:17:15.922Z,0
2018-01-24T05:18:15.648Z,0
2018-01-24T05:19:15.873Z,0
2018-01-24T05:20:15.609Z,0
2018-01-24T05:21:15.886Z,0
2018-01-24T05:22:15.801Z,0
2018-01-24T05:23:15.538Z,0
2018-01-24T05:24:15.753Z,0
2018-01-24T05:25:15.746Z,0
2018-01-24T05:26:15.229Z,0
2018-01-24T05:27:15.445Z,0
2018-01-24T05:28:15.675Z,0
2018-01-24T05:29:15.398Z,0
2018-01-24T05:30:15.617Z,0
2018-01-24T05:31:15.353Z,0
2018-01-24T05:32:15.327Z,0
2018-01-24T05:33:15.062Z,0
2018-01-24T05:34:15.526Z,0
2018-01-24T05:35:15.506Z,0
2018-01-24T05:36:15.482Z,0
2018-01-24T05:37:15.209Z,0
2018-01-24T05:38:15.436Z,0
2018-01-24T05:39:15.410Z,0
2018-01-24T05:40:15.393Z,0
2018-01-24T05:41:15.124Z,0
2018-01-24T05:42:15.342Z,0
2018-01-24T05:43:15.325Z,0
2018-01-24T05:44:14.806Z,0
2018-01-24T05:45:15.031Z,0
2018-01-24T05:46:15.009Z,0
2018-01-24T05:47:14.979Z,0
2018-01-24T05:48:14.958Z,0
2018-01-24T05:49:15.192Z,0
2018-01-24T05:50:14.916Z,0
2018-01-24T05:51:15.136Z,0
2018-01-24T05:52:15.117Z,0
2018-01-24T05:53:15.088Z,0
2018-01-24T05:54:15.071Z,0
2018-01-24T05:55:14.853Z,0
2018-01-24T05:56:15.025Z,0
2018-01-24T05:57:15.002Z,0
2018-01-24T05:58:14.970Z,0
2018-01-24T05:59:14.711Z,0
2018-01-24T06:00:14.690Z,0
2018-01-24T06:01:14.668Z,0
2018-01-24T06:02:14.641Z,0
2018-01-24T06:03:14.862Z,0
2018-01-24T06:04:14.839Z,0
2018-01-24T06:05:14.615Z,0
2018-01-24T06:06:14.793Z,0
2018-01-24T06:07:14.527Z,0
2018-01-24T06:08:14.503Z,0
2018-01-24T06:09:14.727Z,0
2018-01-24T06:10:14.710Z,0
2018-01-24T06:11:14.676Z,0
2018-01-24T06:12:14.660Z,0
2018-01-24T06:13:14.633Z,0
2018-01-24T06:14:14.619Z,0
2018-01-24T06:15:14.598Z,0
2018-01-24T06:16:14.369Z,0
2018-01-24T06:17:14.296Z,0
2018-01-24T06:18:14.522Z,0
2018-01-24T06:19:14.254Z,0
2018-01-24T06:20:14.501Z,0
2018-01-24T06:21:14.204Z,0
2018-01-24T06:22:14.185Z,0
2018-01-24T06:23:14.406Z,0
2018-01-24T06:24:14.381Z,0
2018-01-24T06:25:14.362Z,0
2018-01-24T06:26:14.091Z,0
2018-01-24T06:27:14.070Z,0
2018-01-24T06:28:14.050Z,0
2018-01-24T06:29:14.027Z,0
2018-01-24T06:30:13.998Z,0
2018-01-24T06:31:14.217Z,0
2018-01-24T06:32:14.399Z,0
2018-01-24T06:33:13.929Z,0
2018-01-24T06:34:14.161Z,0
2018-01-24T06:35:13.889Z,0
2018-01-24T06:36:14.107Z,0
2018-01-24T06:37:14.080Z,0
2018-01-24T06:38:14.084Z,0
2018-01-24T06:39:14.044Z,0
2018-01-24T06:40:13.771Z,0
2018-01-24T06:41:13.992Z,0
2018-01-24T06:42:13.973Z,0
2018-01-24T06:43:13.947Z,0
2018-01-24T06:44:13.687Z,4
2018-01-24T06:45:13.653Z,4
2018-01-24T06:46:13.888Z,0
2018-01-24T06:47:13.858Z,4
2018-01-24T06:48:13.883Z,4
2018-01-24T06:49:13.813Z,4
2018-01-24T06:50:13.785Z,8
2018-01-24T06:51:13.764Z,8
2018-01-24T06:52:13.493Z,8
2018-01-24T06:53:13.723Z,8
2018-01-24T06:54:13.453Z,8
2018-01-24T06:55:13.673Z,12
2018-01-24T06:56:13.408Z,16
2018-01-24T06:57:13.633Z,20
2018-01-24T06:58:13.606Z,20
2018-01-24T06:59:13.338Z,24
2018-01-24T07:00:13.316Z,28
2018-01-24T07:01:13.538Z,32
2018-01-24T07:02:13.262Z,36
2018-01-24T07:03:13.250Z,36
2018-01-24T07:04:13.472Z,36
2018-01-24T07:05:13.445Z,44
2018-01-24T07:06:13.428Z,52
2018-01-24T07:07:13.407Z,60
2018-01-24T07:08:13.143Z,68
2018-01-24T07:09:13.355Z,76
2018-01-24T07:10:13.324Z,88
2018-01-24T07:11:13.310Z,104
2018-01-24T07:12:13.286Z,116
2018-01-24T07:13:13.022Z,128
2018-01-24T07:14:12.748Z,140
2018-01-24T07:15:12.726Z,160
2018-01-24T07:16:12.944Z,172
2018-01-24T07:17:12.923Z,180
2018-01-24T07:18:12.653Z,184
2018-01-24T07:19:12.879Z,200
2018-01-24T07:20:12.854Z,208
2018-01-24T07:21:12.828Z,220
2018-01-24T07:22:12.804Z,236
2018-01-24T07:23:13.109Z,232
2018-01-24T07:24:13.009Z,200
2018-01-24T07:25:12.738Z,184
2018-01-24T07:26:12.715Z,176
2018-01-24T07:27:12.696Z,192
2018-01-24T07:28:12.671Z,204
2018-01-24T07:29:12.404Z,208
2018-01-24T07:30:12.870Z,196
2018-01-24T07:31:12.911Z,212
2018-01-24T07:32:12.841Z,248
2018-01-24T07:33:12.553Z,284
2018-01-24T07:34:12.534Z,348
2018-01-24T07:35:12.768Z,336
2018-01-24T07:36:12.242Z,340
2018-01-24T07:37:12.714Z,388
2018-01-24T07:38:12.442Z,460
2018-01-24T07:39:12.423Z,464
2018-01-24T07:40:12.647Z,472
2018-01-24T07:41:12.378Z,540
2018-01-24T07:42:12.598Z,552
2018-01-24T07:43:12.574Z,504
2018-01-24T07:44:11.818Z,512
2018-01-24T07:45:12.593Z,560
2018-01-24T07:46:12.268Z,612
2018-01-24T07:47:12.392Z,588
2018-01-24T07:48:12.467Z,576
2018-01-24T07:49:12.441Z,500
2018-01-24T07:50:12.182Z,640
2018-01-24T07:51:12.157Z,872
2018-01-24T07:52:12.129Z,992
2018-01-24T07:53:11.860Z,1088
2018-01-24T07:54:12.335Z,1208
2018-01-24T07:55:12.313Z,1216
2018-01-24T07:56:12.040Z,1180
2018-01-24T07:57:12.265Z,1108
2018-01-24T07:58:12.236Z,1048
2018-01-24T07:59:12.049Z,972
2018-01-24T08:00:12.163Z,1284
2018-01-24T08:01:11.930Z,1280
2018-01-24T08:02:12.154Z,1224
2018-01-24T08:03:11.890Z,1240
2018-01-24T08:04:12.117Z,1660
2018-01-24T08:05:11.840Z,1568
2018-01-24T08:06:11.989Z,1348
2018-01-24T08:07:12.015Z,1180
2018-01-24T08:08:12.123Z,1228
2018-01-24T08:09:11.258Z,1272
2018-01-24T08:10:11.485Z,1656
2018-01-24T08:11:12.075Z,1516
2018-01-24T08:12:12.185Z,1768
2018-01-24T08:13:12.571Z,1968
2018-01-24T08:14:11.639Z,2284
2018-01-24T08:15:12.956Z,2520
2018-01-24T08:16:11.602Z,2664
2018-01-24T08:17:11.827Z,2616
2018-01-24T08:18:11.551Z,2600
2018-01-24T08:19:11.052Z,2500
2018-01-24T08:20:11.275Z,2860
2018-01-24T08:21:11.732Z,2860
2018-01-24T08:22:11.233Z,2820
2018-01-24T08:23:11.685Z,2696
2018-01-24T08:24:11.744Z,2620
2018-01-24T08:25:11.534Z,2960
2018-01-24T08:26:11.623Z,2972
2018-01-24T08:27:11.600Z,2508
2018-01-24T08:28:11.821Z,2364
2018-01-24T08:29:12.433Z,2668
2018-01-24T08:30:11.291Z,3000
2018-01-24T08:31:11.515Z,2708
2018-01-24T08:32:11.730Z,3152
2018-01-24T08:33:11.958Z,3780
2018-01-24T08:34:11.722Z,3916
2018-01-24T08:35:11.464Z,3996
2018-01-24T08:36:11.357Z,4328
2018-01-24T08:37:10.890Z,4280
2018-01-24T08:38:11.462Z,3904
2018-01-24T08:41:15.822Z,4332
2018-01-24T08:41:28.217Z,4300
2018-01-24T08:42:29.193Z,4272
2018-01-24T08:43:28.487Z,4064
2018-01-24T08:44:28.505Z,4008
2018-01-24T08:45:27.613Z,3928
2018-01-24T08:46:27.616Z,4456
2018-01-24T08:47:27.886Z,5140
2018-01-24T08:48:27.448Z,5456
2018-01-24T08:49:27.567Z,5296
2018-01-24T08:50:28.969Z,4960
2018-01-24T08:51:28.173Z,5100
2018-01-24T08:52:29.035Z,5496
2018-01-24T08:53:28.199Z,5512
2018-01-24T08:54:27.274Z,5172
2018-01-24T08:55:27.665Z,4832
2018-01-24T08:56:27.603Z,4408
2018-01-24T08:57:27.537Z,4580
2018-01-24T08:58:26.967Z,4688
2018-01-24T08:59:27.703Z,4764
2018-01-24T09:00:27.668Z,4684
2018-01-24T09:01:27.804Z,4676
2018-01-24T09:02:27.058Z,4456
2018-01-24T09:03:27.619Z,5344
2018-01-24T09:04:27.423Z,6580
2018-01-24T09:05:27.675Z,6520
2018-01-24T09:06:30.314Z,6384
2018-01-24T09:07:27.499Z,6492
2018-01-24T09:08:27.565Z,6800
2018-01-24T09:09:28.000Z,7068
2018-01-24T09:10:26.916Z,7304
2018-01-24T09:11:29.093Z,8204
2018-01-24T09:12:28.773Z,8696
2018-01-24T09:13:31.029Z,8524
2018-01-24T09:14:29.258Z,8460
2018-01-24T09:15:29.317Z,8128
2018-01-24T09:16:30.490Z,8272
2018-01-24T09:17:29.235Z,7776
2018-01-24T09:18:29.052Z,7448
2018-01-24T09:19:29.395Z,6696
2018-01-24T09:20:29.175Z,7444
2018-01-24T09:21:28.408Z,8460
2018-01-24T09:22:29.963Z,8880
2018-01-24T09:23:28.263Z,8260
2018-01-24T09:24:31.949Z,9200
2018-01-24T09:25:28.876Z,8880
2018-01-24T09:26:27.682Z,10076
2018-01-24T09:27:31.290Z,10136
2018-01-24T09:28:28.162Z,9836
2018-01-24T09:29:28.367Z,11088
2018-01-24T09:30:28.247Z,12008
2018-01-24T09:31:34.834Z,12428
2018-01-24T09:32:31.312Z,11440
2018-01-24T09:33:27.114Z,11552
2018-01-24T09:34:26.740Z,10572
2018-01-24T09:35:28.158Z,10804
2018-01-24T09:36:28.267Z,10724
2018-01-24T09:37:27.626Z,9300
2018-01-24T09:38:26.927Z,8244
2018-01-24T09:39:27.613Z,8904
2018-01-24T09:40:26.646Z,7636
2018-01-24T09:41:27.434Z,7264
2018-01-24T09:42:27.012Z,7004
2018-01-24T09:43:26.767Z,6448
2018-01-24T09:44:26.751Z,7336
2018-01-24T09:45:27.917Z,7444
2018-01-24T09:46:27.128Z,7564
2018-01-24T09:47:27.273Z,7480
2018-01-24T09:48:27.920Z,7380
2018-01-24T09:49:27.517Z,6440
2018-01-24T09:50:28.146Z,6024
2018-01-24T09:51:27.205Z,6904
2018-01-24T09:52:26.292Z,7504
2018-01-24T09:53:27.681Z,7692
2018-01-24T09:54:28.235Z,7456
2018-01-24T09:55:26.227Z,7560
2018-01-24T09:56:26.564Z,6848
2018-01-24T09:57:27.210Z,7808
2018-01-24T09:58:30.482Z,8656
2018-01-24T09:59:25.837Z,9596
2018-01-24T10:00:24.497Z,10420
2018-01-24T10:01:31.885Z,10292
2018-01-24T10:02:28.770Z,9968
2018-01-24T10:03:30.311Z,10032
2018-01-24T10:04:26.980Z,11288
2018-01-24T10:05:31.032Z,12116
2018-01-24T10:06:26.509Z,12312
2018-01-24T10:07:27.016Z,12572
2018-01-24T10:08:29.166Z,12328
2018-01-24T10:09:27.852Z,12132
2018-01-24T10:10:32.343Z,12788
2018-01-24T10:11:30.898Z,12508
2018-01-24T10:12:29.081Z,12900
2018-01-24T10:13:26.803Z,12756
2018-01-24T10:14:27.349Z,12780
2018-01-24T10:15:35.972Z,13452
2018-01-24T10:16:26.755Z,13644
2018-01-24T10:17:26.513Z,12956
2018-01-24T10:18:28.106Z,13668
2018-01-24T10:19:24.656Z,15064
2018-01-24T10:20:26.670Z,15248
2018-01-24T10:21:25.383Z,15500
2018-01-24T10:22:24.608Z,15108
2018-01-24T10:23:27.026Z,14520
2018-01-24T10:24:27.788Z,13888
2018-01-24T10:25:27.234Z,13192
2018-01-24T10:26:26.737Z,13020
2018-01-24T10:27:26.623Z,13332
2018-01-24T10:28:26.395Z,13272
2018-01-24T10:29:27.310Z,13164
2018-01-24T10:30:26.083Z,13768
2018-01-24T10:31:26.371Z,13808
2018-01-24T10:32:27.116Z,12904
2018-01-24T10:33:26.556Z,11604
2018-01-24T10:34:30.230Z,11032
2018-01-24T10:35:27.020Z,10500
2018-01-24T10:36:26.073Z,10816
2018-01-24T10:37:25.853Z,12592
2018-01-24T10:38:26.349Z,13132
2018-01-24T10:39:26.675Z,12852
2018-01-24T10:40:23.416Z,12696
2018-01-24T10:41:23.636Z,11900
2018-01-24T10:42:23.425Z,11404
2018-01-24T10:43:23.356Z,11004
2018-01-24T10:44:23.628Z,10120
2018-01-24T10:45:23.419Z,8768
2018-01-24T10:46:23.056Z,9076
2018-01-24T10:47:23.526Z,9300
2018-01-24T10:48:23.503Z,8460
2018-01-24T10:49:23.000Z,7624
2018-01-24T10:50:23.473Z,7916
2018-01-24T10:51:23.209Z,8032
2018-01-24T10:52:23.441Z,8168
2018-01-24T10:53:23.430Z,8224
2018-01-24T10:54:23.398Z,7608
2018-01-24T10:55:23.383Z,6976
2018-01-24T10:56:23.360Z,6984
2018-01-24T10:57:23.342Z,7452
2018-01-24T10:58:23.102Z,7060
2018-01-24T10:59:22.892Z,7564
2018-01-24T11:00:24.156Z,7176
2018-01-24T11:01:23.264Z,8684
2018-01-24T11:02:23.244Z,8952
2018-01-24T11:03:22.987Z,9028
2018-01-24T11:04:23.218Z,9088
2018-01-24T11:05:22.948Z,9648
2018-01-24T11:06:23.169Z,9248
2018-01-24T11:07:23.151Z,9028
2018-01-24T11:08:23.143Z,10568
2018-01-24T11:09:23.113Z,11744
2018-01-24T11:10:22.652Z,12696
2018-01-24T11:11:23.075Z,12736
2018-01-24T11:12:22.820Z,11964
2018-01-24T11:13:23.050Z,10432
2018-01-24T11:14:23.023Z,10228
2018-01-24T11:15:22.759Z,10488
2018-01-24T11:16:22.981Z,11672
2018-01-24T11:17:22.970Z,11656
2018-01-24T11:18:22.457Z,9644
2018-01-24T11:19:22.741Z,9124
2018-01-24T11:20:22.475Z,9904
2018-01-24T11:21:22.642Z,10340
2018-01-24T11:22:22.638Z,11456
2018-01-24T11:23:22.614Z,12868
2018-01-24T11:24:22.836Z,12920
2018-01-24T11:25:22.818Z,12724
2018-01-24T11:26:22.804Z,15324
2018-01-24T11:27:22.778Z,16968
2018-01-24T11:28:22.633Z,15324
2018-01-24T11:29:22.742Z,14892
2018-01-24T11:30:22.731Z,14972
2018-01-24T11:31:22.711Z,14608
2018-01-24T11:32:22.687Z,13396
2018-01-24T11:33:22.668Z,13220
2018-01-24T11:34:22.662Z,13428
2018-01-24T11:35:22.386Z,13192
2018-01-24T11:36:22.615Z,12660
2018-01-24T11:37:22.600Z,12396
2018-01-24T11:38:22.586Z,13408
2018-01-24T11:39:22.568Z,13632
2018-01-24T11:40:22.374Z,13968
2018-01-24T11:41:22.422Z,14612
2018-01-24T11:42:22.280Z,15356
2018-01-24T11:43:22.770Z,15744
2018-01-24T11:44:22.492Z,15088
2018-01-24T11:45:22.211Z,14968
2018-01-24T11:46:22.438Z,13944
2018-01-24T11:47:22.428Z,13724
2018-01-24T11:48:22.410Z,13368
2018-01-24T11:49:22.486Z,13688
2018-01-24T11:50:21.886Z,12528
2018-01-24T11:51:22.359Z,12268
2018-01-24T11:52:22.342Z,11996
2018-01-24T11:53:22.339Z,11184
2018-01-24T11:54:22.220Z,11840
2018-01-24T11:55:22.285Z,11212
2018-01-24T11:56:21.835Z,11008
2018-01-24T11:57:22.270Z,10988
2018-01-24T11:58:21.991Z,10712
2018-01-24T11:59:22.220Z,11400
2018-01-24T12:00:21.957Z,10752
2018-01-24T12:01:22.183Z,10464
2018-01-24T12:02:22.165Z,10792
2018-01-24T12:03:21.915Z,10836
2018-01-24T12:04:21.399Z,11196
2018-01-24T12:05:22.116Z,11488
2018-01-24T12:06:22.097Z,11456
2018-01-24T12:07:22.088Z,11448
2018-01-24T12:08:22.063Z,11536
2018-01-24T12:09:22.049Z,12260
2018-01-24T12:10:22.024Z,12328
2018-01-24T12:11:21.761Z,11032
2018-01-24T12:12:21.990Z,10864
2018-01-24T12:13:22.069Z,10924
2018-01-24T12:14:21.463Z,11344
2018-01-24T12:15:21.696Z,11368
2018-01-24T12:16:21.674Z,12036
2018-01-24T12:17:21.652Z,12368
2018-01-24T12:18:21.888Z,12352
2018-01-24T12:19:21.868Z,12292
2018-01-24T12:20:21.846Z,12352
2018-01-24T12:21:21.844Z,12336
2018-01-24T12:22:21.571Z,12124
2018-01-24T12:23:21.551Z,12068
2018-01-24T12:24:21.531Z,13036
2018-01-24T12:25:21.766Z,12944
2018-01-24T12:26:21.746Z,13116
2018-01-24T12:27:21.727Z,13224
2018-01-24T12:28:21.708Z,13024
2018-01-24T12:29:21.689Z,13120
2018-01-24T12:30:21.177Z,13084
2018-01-24T12:31:21.656Z,12204
2018-01-24T12:32:21.641Z,11728
2018-01-24T12:33:21.629Z,12400
2018-01-24T12:34:21.612Z,12736
2018-01-24T12:35:21.589Z,12408
2018-01-24T12:36:21.079Z,12232
2018-01-24T12:37:21.553Z,12432
2018-01-24T12:38:21.643Z,12284
2018-01-24T12:39:21.508Z,11836
2018-01-24T12:40:21.542Z,11624
2018-01-24T12:41:21.242Z,11184
2018-01-24T12:42:21.217Z,11012
2018-01-24T12:43:21.440Z,10472
2018-01-24T12:44:21.427Z,10820
2018-01-24T12:45:21.409Z,11976
2018-01-24T12:46:21.391Z,12944
2018-01-24T12:47:21.132Z,13252
2018-01-24T12:48:21.354Z,13628
2018-01-24T12:49:21.095Z,13576
2018-01-24T12:50:21.320Z,13444
2018-01-24T12:51:21.058Z,12908
2018-01-24T12:52:21.292Z,12724
2018-01-24T12:53:20.777Z,11892
2018-01-24T12:54:21.012Z,12820
2018-01-24T12:55:21.235Z,12592
2018-01-24T12:56:20.975Z,12868
2018-01-24T12:57:21.245Z,12328
2018-01-24T12:58:20.940Z,12056
2018-01-24T12:59:21.165Z,11876
2018-01-24T13:00:21.076Z,11284
2018-01-24T13:01:20.886Z,11256
2018-01-24T13:02:21.116Z,11652
2018-01-24T13:03:20.852Z,11800
2018-01-24T13:04:21.094Z,11896
2018-01-24T13:05:20.577Z,11972
2018-01-24T13:06:20.558Z,12148
2018-01-24T13:07:21.025Z,12404
2018-01-24T13:08:20.787Z,12560
2018-01-24T13:09:20.603Z,12340
2018-01-24T13:10:20.999Z,12232
2018-01-24T13:11:20.703Z,12288
2018-01-24T13:12:20.723Z,11800
2018-01-24T13:13:21.057Z,12052
2018-01-24T13:14:21.317Z,11800
2018-01-24T13:15:21.070Z,11608
2018-01-24T13:16:20.643Z,11464
2018-01-24T13:17:20.610Z,11392
2018-01-24T13:18:20.632Z,11360
2018-01-24T13:19:20.828Z,11308
2018-01-24T13:20:20.860Z,11336
2018-01-24T13:21:20.551Z,11300
2018-01-24T13:22:20.274Z,11320
2018-01-24T13:23:20.522Z,11328
2018-01-24T13:24:20.733Z,11420
2018-01-24T13:25:20.732Z,11196
2018-01-24T13:26:20.695Z,11008
2018-01-24T13:27:20.678Z,11028
2018-01-24T13:28:20.660Z,10928
2018-01-24T13:29:20.407Z,10032
2018-01-24T13:30:20.681Z,9352
2018-01-24T13:31:20.358Z,8940
2018-01-24T13:32:20.342Z,8596
2018-01-24T13:33:20.568Z,8280
2018-01-24T13:34:20.302Z,8620
2018-01-24T13:35:20.536Z,7916
2018-01-24T13:36:20.552Z,7432
2018-01-24T13:37:20.574Z,7680
2018-01-24T13:38:20.477Z,6656
2018-01-24T13:39:19.971Z,6468
2018-01-24T13:40:20.448Z,6292
2018-01-24T13:41:20.178Z,5992
2018-01-24T13:42:20.402Z,5984
2018-01-24T13:43:20.393Z,6128
2018-01-24T13:44:20.370Z,6012
2018-01-24T13:45:20.350Z,6612
2018-01-24T13:46:20.337Z,6860
2018-01-24T13:47:20.319Z,6608
2018-01-24T13:48:20.056Z,6344
2018-01-24T13:49:20.286Z,6560
2018-01-24T13:50:20.266Z,6548
2018-01-24T13:51:20.247Z,6308
2018-01-24T13:52:20.226Z,7500
2018-01-24T13:53:20.208Z,7260
2018-01-24T13:54:20.188Z,7372
2018-01-24T13:55:20.170Z,7216
2018-01-24T13:56:20.147Z,7120
2018-01-24T13:57:19.883Z,7156